createdAt,value
2017-09-25T00:01:28.998Z,21.60
2017-09-25T00:03:55.644Z,21.20
2017-09-25T00:06:22.312Z,18.77
2017-09-25T00:08:48.970Z,20.70
2017-09-25T00:11:15.778Z,20.27
2017-09-25T00:13:42.433Z,18.07
2017-09-25T00:16:09.387Z,18.90
2017-09-25T00:18:36.064Z,18.57
2017-09-25T00:21:02.720Z,19.57
2017-09-25T00:23:29.384Z,17.83
2017-09-25T00:25:56.058Z,21.00
2017-09-25T00:28:22.719Z,19.30
2017-09-25T00:30:49.405Z,21.67
2017-09-25T00:33:16.057Z,20.13
2017-09-25T00:35:43.019Z,20.37
2017-09-25T00:38:09.668Z,21.47
2017-09-25T00:40:36.324Z,19.40
2017-09-25T00:43:03.013Z,19.57
2017-09-25T00:45:29.674Z,20.03
2017-09-25T00:47:56.336Z,18.43
2017-09-25T00:50:23.108Z,19.93
2017-09-25T00:52:55.450Z,18.43
2017-09-25T00:55:28.227Z,17.13
2017-09-25T00:57:54.897Z,19.73
2017-09-25T01:00:27.284Z,18.17
2017-09-25T01:02:59.722Z,18.10
2017-09-25T01:05:36.318Z,19.07
2017-09-25T01:08:02.968Z,16.90
2017-09-25T01:10:29.642Z,19.50
2017-09-25T01:12:56.296Z,19.83
2017-09-25T01:15:22.975Z,19.83
2017-09-25T01:17:50.122Z,19.90
2017-09-25T01:20:16.773Z,22.07
2017-09-25T01:22:43.425Z,21.50
2017-09-25T01:25:10.106Z,20.23
2017-09-25T01:27:36.752Z,18.80
2017-09-25T01:30:03.424Z,18.93
2017-09-25T01:32:30.077Z,18.97
2017-09-25T01:34:57.111Z,21.10
2017-09-25T01:37:23.772Z,22.57
2017-09-25T01:39:50.422Z,23.20
2017-09-25T01:42:17.321Z,22.10
2017-09-25T01:44:43.969Z,23.00
2017-09-25T01:47:10.647Z,22.57
2017-09-25T01:49:37.305Z,20.67
2017-09-25T01:52:03.976Z,21.27
2017-09-25T01:54:30.653Z,21.10
2017-09-25T01:56:57.305Z,21.70
2017-09-25T01:59:23.979Z,21.80
2017-09-25T02:01:50.648Z,21.90
2017-09-25T02:04:17.293Z,19.83
2017-09-25T02:06:43.969Z,22.93
2017-09-25T02:09:10.629Z,21.33
2017-09-25T02:11:37.645Z,19.13
2017-09-25T02:14:04.293Z,18.97
2017-09-25T02:16:30.949Z,20.63
2017-09-25T02:18:57.620Z,18.93
2017-09-25T02:21:24.271Z,19.27
2017-09-25T02:23:50.948Z,19.80
2017-09-25T02:26:17.797Z,20.20
2017-09-25T02:28:44.540Z,21.10
2017-09-25T02:31:11.185Z,21.67
2017-09-25T02:33:37.865Z,21.70
2017-09-25T02:36:04.532Z,20.43
2017-09-25T02:38:31.187Z,20.23
2017-09-25T02:40:57.857Z,20.63
2017-09-25T02:43:24.509Z,20.97
2017-09-25T02:45:51.184Z,22.07
2017-09-25T02:48:17.849Z,21.10
2017-09-25T02:50:44.533Z,18.53
2017-09-25T02:53:11.194Z,18.00
2017-09-25T02:55:37.871Z,18.80
2017-09-25T02:58:04.525Z,19.53
2017-09-25T03:00:31.208Z,18.57
2017-09-25T03:02:57.885Z,19.17
2017-09-25T03:05:24.533Z,18.03
2017-09-25T03:07:51.225Z,17.40
2017-09-25T03:10:17.900Z,18.17
2017-09-25T03:12:44.579Z,17.10
2017-09-25T03:15:11.260Z,17.93
2017-09-25T03:17:37.922Z,15.70
2017-09-25T03:20:04.594Z,15.47
2017-09-25T03:22:31.252Z,16.17
2017-09-25T03:24:57.935Z,15.33
2017-09-25T03:27:24.587Z,15.90
2017-09-25T03:29:51.264Z,15.30
2017-09-25T03:32:17.910Z,15.53
2017-09-25T03:34:44.592Z,15.43
2017-09-25T03:37:11.241Z,14.23
2017-09-25T03:39:38.049Z,14.67
2017-09-25T03:42:04.701Z,15.77
2017-09-25T03:44:31.356Z,14.40
2017-09-25T03:46:58.168Z,13.67
2017-09-25T03:49:24.824Z,15.03
2017-09-25T03:51:51.482Z,15.03
2017-09-25T03:54:18.152Z,15.10
2017-09-25T03:56:44.804Z,16.47
2017-09-25T03:59:11.780Z,14.20
2017-09-25T04:01:38.437Z,13.37
2017-09-25T04:04:05.089Z,15.20
2017-09-25T04:06:31.757Z,14.97
2017-09-25T04:08:58.459Z,16.30
2017-09-25T04:11:25.141Z,15.20
2017-09-25T04:13:51.792Z,14.47
2017-09-25T04:16:18.447Z,15.27
2017-09-25T04:18:45.125Z,15.93
2017-09-25T04:21:11.905Z,15.73
2017-09-25T04:23:38.561Z,15.27
2017-09-25T04:26:05.212Z,14.70
2017-09-25T04:28:31.888Z,15.60
2017-09-25T04:30:58.543Z,15.13
2017-09-25T04:33:25.465Z,16.20
2017-09-25T04:35:52.117Z,14.53
2017-09-25T04:38:18.773Z,16.80
2017-09-25T04:40:45.702Z,22.47
2017-09-25T04:43:12.359Z,19.50
2017-09-25T04:45:39.012Z,19.40
2017-09-25T04:48:05.692Z,19.93
2017-09-25T04:50:32.347Z,18.60
2017-09-25T04:52:59.042Z,24.63
2017-09-25T04:55:25.695Z,30.17
2017-09-25T04:57:52.341Z,29.43
2017-09-25T05:00:19.024Z,33.17
2017-09-25T05:02:45.672Z,35.37
2017-09-25T05:05:12.353Z,37.27
2017-09-25T05:07:39.003Z,41.90
2017-09-25T05:10:05.659Z,42.90
2017-09-25T05:12:32.344Z,46.10
2017-09-25T05:14:59.000Z,46.20
2017-09-25T05:17:25.674Z,47.03
2017-09-25T05:19:52.320Z,48.23
2017-09-25T05:22:18.986Z,49.30
2017-09-25T05:24:45.660Z,51.27
2017-09-25T05:27:12.339Z,50.40
2017-09-25T05:29:38.999Z,49.53
2017-09-25T05:32:05.678Z,52.77
2017-09-25T05:34:32.335Z,56.10
2017-09-25T05:36:59.017Z,51.27
2017-09-25T05:39:25.668Z,50.87
2017-09-25T05:41:52.345Z,51.90
2017-09-25T05:44:19.024Z,53.10
2017-09-25T05:46:45.924Z,49.90
2017-09-25T05:49:12.581Z,48.90
2017-09-25T05:51:39.229Z,49.87
2017-09-25T05:54:05.897Z,45.20
2017-09-25T05:56:32.557Z,42.23
2017-09-25T05:58:59.241Z,43.90
2017-09-25T06:01:25.932Z,40.17
2017-09-25T06:03:52.588Z,38.60
2017-09-25T06:06:19.239Z,39.23
2017-09-25T06:08:45.912Z,38.13
2017-09-25T06:11:12.571Z,41.23
2017-09-25T06:13:39.249Z,40.50
2017-09-25T06:16:05.920Z,41.57
2017-09-25T06:18:32.572Z,40.57
2017-09-25T06:20:59.269Z,38.87
2017-09-25T06:23:25.920Z,38.10
2017-09-25T06:25:52.570Z,37.90
2017-09-25T06:28:19.524Z,34.83
2017-09-25T06:30:46.169Z,33.70
2017-09-25T06:33:12.815Z,34.20
2017-09-25T06:35:39.496Z,32.23
2017-09-25T06:38:06.141Z,36.23
2017-09-25T06:40:33.136Z,30.90
2017-09-25T06:42:59.800Z,31.13
2017-09-25T06:45:26.457Z,27.97
2017-09-25T06:47:53.141Z,28.50
2017-09-25T06:50:19.788Z,30.40
2017-09-25T06:52:46.458Z,27.20
2017-09-25T06:55:13.117Z,30.03
2017-09-25T06:57:39.764Z,29.20
2017-09-25T07:00:06.673Z,27.10
2017-09-25T07:02:33.326Z,29.60
2017-09-25T07:04:59.973Z,26.60
2017-09-25T07:07:26.644Z,27.53
2017-09-25T07:09:53.296Z,28.13
2017-09-25T07:12:19.974Z,28.47
2017-09-25T07:14:46.632Z,28.23
2017-09-25T07:17:13.310Z,28.53
2017-09-25T07:19:39.962Z,29.87
2017-09-25T07:22:06.611Z,29.10
2017-09-25T07:24:33.278Z,31.80
2017-09-25T07:26:59.948Z,33.30
2017-09-25T07:29:26.620Z,32.43
2017-09-25T07:31:53.285Z,30.37
2017-09-25T07:34:19.946Z,29.97
2017-09-25T07:36:46.624Z,32.90
2017-09-25T07:39:13.297Z,34.37
2017-09-25T07:41:39.951Z,34.73
2017-09-25T07:44:06.620Z,36.70
2017-09-25T07:46:33.315Z,33.70
2017-09-25T07:49:00.041Z,35.30
2017-09-25T07:51:26.713Z,34.80
2017-09-25T07:53:53.356Z,33.10
2017-09-25T07:56:20.046Z,31.20
2017-09-25T07:58:46.721Z,31.20
2017-09-25T08:01:13.649Z,31.37
2017-09-25T08:03:40.307Z,30.80
2017-09-25T08:06:06.962Z,30.90
2017-09-25T08:08:33.641Z,27.97
2017-09-25T08:11:00.293Z,28.03
2017-09-25T08:13:26.968Z,27.40
2017-09-25T08:15:53.617Z,29.00
2017-09-25T08:18:20.293Z,27.30
2017-09-25T08:20:47.158Z,23.43
2017-09-25T08:23:13.801Z,23.37
2017-09-25T08:25:40.451Z,20.00
2017-09-25T08:28:07.244Z,19.20
2017-09-25T08:30:33.893Z,19.03
2017-09-25T08:33:00.548Z,18.20
2017-09-25T08:35:27.232Z,17.37
2017-09-25T08:37:53.915Z,16.87
2017-09-25T08:40:20.596Z,17.43
2017-09-25T08:42:47.249Z,15.70
2017-09-25T08:45:13.947Z,15.60
2017-09-25T08:47:40.604Z,17.60
2017-09-25T08:50:07.253Z,16.80
2017-09-25T08:52:33.929Z,17.00
2017-09-25T08:55:00.584Z,18.53
2017-09-25T08:57:27.468Z,17.67
2017-09-25T08:59:54.121Z,16.70
2017-09-25T09:02:20.777Z,17.07
2017-09-25T09:04:47.477Z,16.30
2017-09-25T09:07:14.131Z,16.77
2017-09-25T09:09:40.785Z,16.57
2017-09-25T09:12:07.456Z,16.50
2017-09-25T09:14:34.145Z,18.00
2017-09-25T09:17:00.801Z,16.47
2017-09-25T09:19:27.454Z,17.77
2017-09-25T09:21:54.488Z,17.90
2017-09-25T09:24:21.138Z,18.03
2017-09-25T09:26:47.784Z,17.17
2017-09-25T09:29:14.720Z,15.47
2017-09-25T09:31:41.369Z,15.93
2017-09-25T09:34:08.025Z,15.57
2017-09-25T09:36:34.696Z,16.60
2017-09-25T09:39:01.503Z,16.43
2017-09-25T09:41:28.157Z,15.70
2017-09-25T09:43:54.807Z,14.67
2017-09-25T09:46:21.625Z,15.60
2017-09-25T09:48:48.280Z,15.07
2017-09-25T09:51:14.965Z,14.67
2017-09-25T09:53:41.638Z,14.63
2017-09-25T09:56:08.379Z,14.03
2017-09-25T09:58:35.053Z,13.10
2017-09-25T10:01:01.702Z,14.80
2017-09-25T10:03:28.403Z,13.60
2017-09-25T10:05:55.268Z,13.70
2017-09-25T10:08:21.925Z,13.03
2017-09-25T10:10:48.588Z,14.23
2017-09-25T10:13:15.258Z,14.77
2017-09-25T10:15:41.914Z,15.13
2017-09-25T10:18:08.601Z,16.47
2017-09-25T10:20:35.299Z,15.50
2017-09-25T10:23:01.956Z,14.03
2017-09-25T10:25:28.606Z,15.30
2017-09-25T10:27:55.279Z,15.87
2017-09-25T10:30:21.944Z,15.20
2017-09-25T10:32:48.633Z,13.40
2017-09-25T10:35:15.330Z,15.83
2017-09-25T10:37:42.013Z,16.90
2017-09-25T10:40:08.673Z,16.33
2017-09-25T10:42:35.474Z,16.33
2017-09-25T10:45:02.130Z,16.23
2017-09-25T10:47:28.808Z,16.60
2017-09-25T10:49:55.713Z,17.57
2017-09-25T10:52:22.369Z,15.07
2017-09-25T10:54:49.028Z,18.33
2017-09-25T10:57:15.712Z,17.07
2017-09-25T10:59:42.389Z,16.97
2017-09-25T11:02:09.036Z,15.40
2017-09-25T11:04:35.721Z,17.13
2017-09-25T11:07:02.392Z,17.80
2017-09-25T11:09:29.058Z,16.57
2017-09-25T11:11:55.728Z,17.63
2017-09-25T11:14:22.384Z,17.23
2017-09-25T11:17:14.628Z,15.60
2017-09-25T11:19:41.298Z,15.83
2017-09-25T11:22:07.968Z,14.53
2017-09-25T11:24:35.093Z,14.67
2017-09-25T11:27:01.743Z,16.07
2017-09-25T11:29:28.391Z,14.67
2017-09-25T11:31:55.085Z,16.53
2017-09-25T11:34:21.964Z,15.40
2017-09-25T11:36:48.625Z,15.07
2017-09-25T11:39:15.333Z,12.23
2017-09-25T11:41:42.028Z,12.63
2017-09-25T11:44:08.676Z,13.80
2017-09-25T11:46:35.340Z,11.83
2017-09-25T11:49:02.018Z,13.00
2017-09-25T11:51:28.677Z,12.13
2017-09-25T11:53:55.349Z,11.80
2017-09-25T11:56:22.341Z,12.40
2017-09-25T11:58:48.988Z,11.10
2017-09-25T12:01:15.636Z,11.90
2017-09-25T12:03:42.329Z,11.27
2017-09-25T12:06:08.980Z,9.60
2017-09-25T12:08:35.637Z,10.30
2017-09-25T12:11:02.320Z,11.00
2017-09-25T12:13:28.986Z,10.43
2017-09-25T12:15:55.673Z,9.10
2017-09-25T12:18:22.313Z,7.10
2017-09-25T12:20:48.966Z,9.90
2017-09-25T12:23:15.649Z,8.77
2017-09-25T12:25:42.292Z,9.47
2017-09-25T12:28:08.936Z,7.43
2017-09-25T12:30:35.611Z,7.70
2017-09-25T12:33:02.268Z,8.30
2017-09-25T12:35:28.912Z,7.67
2017-09-25T12:37:55.600Z,7.40
2017-09-25T12:40:22.249Z,7.00
2017-09-25T12:42:48.893Z,6.43
2017-09-25T12:45:15.570Z,6.83
2017-09-25T12:47:42.217Z,5.70
2017-09-25T12:50:08.861Z,5.80
2017-09-25T12:52:35.540Z,4.67
2017-09-25T12:55:02.181Z,5.20
2017-09-25T12:57:28.832Z,5.30
2017-09-25T12:59:55.513Z,4.33
2017-09-25T13:02:22.156Z,4.77
2017-09-25T13:04:48.837Z,5.43
2017-09-25T13:07:15.477Z,5.17
2017-09-25T13:09:42.155Z,4.97
2017-09-25T13:12:08.803Z,5.00
2017-09-25T13:14:35.447Z,6.47
2017-09-25T13:17:02.130Z,5.80
2017-09-25T13:19:28.773Z,6.77
2017-09-25T13:21:55.441Z,6.00
2017-09-25T13:24:22.088Z,4.53
2017-09-25T13:26:48.768Z,4.70
2017-09-25T13:29:15.409Z,4.40
2017-09-25T13:31:42.061Z,4.90
2017-09-25T13:34:08.748Z,5.33
2017-09-25T13:36:35.419Z,6.03
2017-09-25T13:39:02.073Z,6.00
2017-09-25T13:41:28.865Z,4.83
2017-09-25T13:43:55.521Z,4.83
2017-09-25T13:46:22.168Z,4.90
2017-09-25T13:48:48.838Z,5.40
2017-09-25T13:51:15.538Z,4.17
2017-09-25T13:53:42.220Z,5.70
2017-09-25T13:56:08.896Z,6.47
2017-09-25T14:03:39.741Z,6.63
2017-09-25T14:06:06.446Z,7.47
2017-09-25T14:08:33.154Z,7.00
2017-09-25T14:10:59.836Z,6.50
2017-09-25T14:13:26.926Z,6.87
2017-09-25T14:15:53.589Z,6.40
2017-09-25T14:18:20.251Z,6.47
2017-09-25T14:20:47.150Z,5.40
2017-09-25T14:23:13.813Z,4.40
2017-09-25T14:25:40.467Z,4.13
2017-09-25T14:28:07.150Z,4.97
2017-09-25T14:30:34.702Z,6.20
2017-09-25T14:33:01.355Z,6.03
2017-09-25T14:35:28.046Z,8.17
2017-09-25T14:37:54.697Z,6.17
2017-09-25T14:40:21.347Z,6.63
2017-09-25T14:42:48.039Z,7.70
2017-09-25T14:45:14.698Z,7.10
2017-09-25T14:47:41.356Z,7.70
2017-09-25T14:50:08.058Z,8.30
2017-09-25T14:52:34.737Z,8.93
2017-09-25T14:55:01.430Z,9.97
2017-09-25T14:57:28.102Z,10.30
2017-09-25T14:59:54.826Z,9.37
2017-09-25T15:02:21.504Z,9.97
2017-09-25T15:04:48.162Z,9.43
2017-09-25T15:07:14.863Z,10.10
2017-09-25T15:09:41.535Z,9.00
2017-09-25T15:12:08.219Z,8.47
2017-09-25T15:14:34.882Z,9.50
2017-09-25T15:17:01.536Z,8.60
2017-09-25T15:19:28.226Z,7.80
2017-09-25T15:21:54.899Z,10.17
2017-09-25T15:24:21.558Z,8.90
2017-09-25T15:26:48.239Z,9.90
2017-09-25T15:29:14.931Z,9.63
2017-09-25T15:31:41.598Z,9.00
2017-09-25T15:34:08.420Z,10.03
2017-09-25T15:36:35.079Z,9.67
2017-09-25T15:39:01.831Z,10.13
2017-09-25T15:41:28.617Z,9.70
2017-09-25T15:43:55.274Z,9.27
2017-09-25T15:46:21.943Z,9.67
2017-09-25T15:48:48.635Z,9.90
2017-09-25T15:51:15.309Z,11.07
2017-09-25T15:53:41.961Z,8.90
2017-09-25T15:56:08.662Z,9.97
2017-09-25T15:58:35.325Z,9.87
2017-09-25T16:01:01.988Z,10.47
2017-09-25T16:03:28.695Z,9.87
2017-09-25T16:05:55.376Z,10.80
2017-09-25T16:08:22.090Z,10.30
2017-09-25T16:10:48.755Z,10.00
2017-09-25T16:13:15.411Z,8.47
2017-09-25T16:15:42.101Z,9.17
2017-09-25T16:18:08.774Z,9.77
2017-09-25T16:20:35.458Z,9.10
2017-09-25T16:23:02.168Z,10.00
2017-09-25T16:25:28.857Z,8.57
2017-09-25T16:27:55.515Z,9.67
2017-09-25T16:30:22.233Z,9.77
2017-09-25T16:32:48.945Z,10.87
2017-09-25T16:35:15.614Z,9.43
2017-09-25T16:37:42.283Z,10.03
2017-09-25T16:40:08.978Z,8.70
2017-09-25T16:42:35.646Z,8.47
2017-09-25T16:45:02.308Z,8.57
2017-09-25T16:47:29.004Z,8.40
2017-09-25T16:49:55.715Z,9.40
2017-09-25T16:52:22.424Z,10.23
2017-09-25T16:54:49.091Z,8.83
2017-09-25T16:57:16.031Z,9.10
2017-09-25T16:59:42.727Z,10.30
2017-09-25T17:02:09.429Z,9.70
2017-09-25T17:04:36.091Z,10.53
2017-09-25T17:07:02.783Z,8.87
2017-09-25T17:09:29.474Z,11.10
2017-09-25T17:11:56.163Z,9.57
2017-09-25T17:14:22.817Z,9.90
2017-09-25T17:16:50.301Z,10.63
2017-09-25T17:19:17.015Z,9.60
2017-09-25T17:21:45.754Z,9.83
2017-09-25T17:24:14.177Z,9.77
2017-09-25T17:26:42.453Z,10.83
2017-09-25T17:29:10.797Z,9.83
2017-09-25T17:31:39.722Z,10.20
2017-09-25T17:34:08.130Z,12.30
2017-09-25T17:36:36.920Z,9.63
2017-09-25T17:39:05.658Z,10.63
2017-09-25T17:41:32.441Z,12.67
2017-09-25T17:43:59.168Z,12.20
2017-09-25T17:46:25.884Z,9.57
2017-09-25T17:48:52.550Z,10.37
2017-09-25T17:51:19.306Z,10.60
2017-09-25T17:53:45.978Z,10.90
2017-09-25T17:56:12.657Z,10.70
2017-09-25T17:58:39.912Z,10.37
2017-09-25T18:01:06.663Z,9.90
2017-09-25T18:03:34.354Z,10.70
2017-09-25T18:06:01.245Z,9.90
2017-09-25T18:08:28.098Z,10.53
2017-09-25T18:10:55.342Z,10.17
2017-09-25T18:13:22.053Z,9.80
2017-09-25T18:15:49.535Z,11.07
2017-09-25T18:18:16.288Z,10.47
2017-09-25T18:20:43.743Z,10.93
2017-09-25T18:23:10.525Z,10.23
2017-09-25T18:25:37.198Z,10.90
2017-09-25T18:28:03.859Z,9.70
2017-09-25T18:30:30.769Z,11.27
2017-09-25T18:32:57.440Z,9.60
2017-09-25T18:35:25.517Z,11.87
2017-09-25T18:37:52.890Z,11.70
2017-09-25T18:40:19.741Z,10.90
2017-09-25T18:42:47.504Z,10.63
2017-09-25T18:45:14.966Z,11.60
2017-09-25T18:47:41.671Z,9.80
2017-09-25T18:50:08.395Z,9.97
2017-09-25T18:52:35.078Z,10.00
2017-09-25T18:55:01.756Z,11.73
2017-09-25T18:57:28.476Z,11.63
2017-09-25T18:59:55.159Z,11.83
2017-09-25T19:02:21.837Z,10.90
2017-09-25T19:04:48.533Z,10.90
2017-09-25T19:07:15.212Z,10.20
2017-09-25T19:09:41.882Z,11.80
2017-09-25T19:12:08.585Z,10.77
2017-09-25T19:14:35.267Z,11.00
2017-09-25T19:17:01.935Z,11.83
2017-09-25T19:19:28.630Z,10.37
2017-09-25T19:21:55.330Z,10.63
2017-09-25T19:24:21.999Z,10.63
2017-09-25T19:26:48.963Z,10.43
2017-09-25T19:29:15.672Z,10.90
2017-09-25T19:31:42.389Z,10.87
2017-09-25T19:34:09.065Z,11.20
2017-09-25T19:36:35.771Z,11.40
2017-09-25T19:39:02.494Z,10.10
2017-09-25T19:41:29.189Z,10.00
2017-09-25T19:43:56.193Z,11.00
2017-09-25T19:46:22.907Z,10.83
2017-09-25T19:49:04.478Z,11.50
2017-09-25T19:51:31.144Z,10.80
2017-09-25T19:54:03.705Z,9.93
2017-09-25T19:56:34.065Z,10.17
2017-09-25T19:59:00.755Z,9.87
2017-09-25T20:01:27.435Z,10.97
2017-09-25T20:03:54.336Z,10.63
2017-09-25T20:06:21.018Z,10.43
2017-09-25T20:08:47.747Z,10.63
2017-09-25T20:11:14.642Z,10.23
2017-09-25T20:13:41.819Z,9.83
2017-09-25T20:16:14.245Z,10.07
2017-09-25T20:18:40.979Z,9.43
2017-09-25T20:21:07.642Z,11.97
2017-09-25T20:23:35.065Z,9.03
2017-09-25T20:26:01.825Z,10.60
2017-09-25T20:28:28.491Z,10.57
2017-09-25T20:30:55.174Z,9.57
2017-09-25T20:33:21.848Z,10.70
2017-09-25T20:35:48.538Z,9.80
2017-09-25T20:38:15.284Z,11.53
2017-09-25T20:40:56.861Z,10.27
2017-09-25T20:43:29.143Z,11.87
2017-09-25T20:45:55.814Z,10.90
2017-09-25T20:48:22.489Z,18.07
2017-09-25T20:50:49.187Z,12.70
2017-09-25T20:53:15.882Z,11.10
2017-09-25T20:55:42.600Z,10.73
2017-09-25T20:58:09.474Z,10.10
2017-09-25T21:00:36.146Z,10.33
2017-09-25T21:03:02.846Z,10.37
2017-09-25T21:05:29.551Z,12.13
2017-09-25T21:07:56.476Z,10.33
2017-09-25T21:10:23.175Z,11.33
2017-09-25T21:12:49.829Z,9.00
2017-09-25T21:15:17.084Z,9.93
2017-09-25T21:17:43.754Z,11.33
2017-09-25T21:20:10.424Z,10.00
2017-09-25T21:22:37.209Z,9.90
2017-09-25T21:25:03.918Z,10.20
2017-09-25T21:27:40.546Z,10.33
2017-09-25T21:30:07.207Z,8.90
2017-09-25T21:32:33.891Z,8.93
2017-09-25T21:35:00.542Z,9.23
2017-09-25T21:37:27.214Z,10.33
2017-09-25T21:39:53.907Z,9.00
2017-09-25T21:42:20.561Z,9.67
2017-09-25T21:44:47.474Z,8.33
2017-09-25T21:47:14.134Z,9.10
2017-09-25T21:49:40.786Z,9.50
2017-09-25T21:52:07.473Z,9.60
2017-09-25T21:54:34.354Z,11.23
2017-09-25T21:57:01.019Z,9.60
2017-09-25T21:59:27.702Z,9.13
2017-09-25T22:01:54.389Z,10.40
2017-09-25T22:04:21.056Z,10.30
2017-09-25T22:06:47.738Z,9.70
2017-09-25T22:09:14.399Z,9.87
2017-09-25T22:11:41.600Z,11.20
2017-09-25T22:14:08.266Z,11.10
2017-09-25T22:16:34.926Z,9.57
2017-09-25T22:19:01.611Z,10.23
2017-09-25T22:21:28.365Z,9.20
2017-09-25T22:23:55.056Z,9.20
2017-09-25T22:26:21.714Z,9.80
2017-09-25T22:28:48.384Z,10.00
2017-09-25T22:31:15.062Z,9.00
2017-09-25T22:33:41.734Z,8.00
2017-09-25T22:36:08.420Z,9.77
2017-09-25T22:38:35.078Z,9.50
2017-09-25T22:41:01.765Z,10.87
2017-09-25T22:43:38.368Z,11.37
2017-09-25T22:46:05.075Z,10.60
2017-09-25T22:48:31.769Z,9.83
2017-09-25T22:50:58.441Z,10.20
2017-09-25T22:53:25.461Z,9.53
2017-09-25T22:55:52.126Z,9.87
2017-09-25T22:58:18.797Z,9.93
2017-09-25T23:00:45.589Z,10.90
2017-09-25T23:03:12.265Z,10.30
2017-09-25T23:05:44.639Z,10.77
2017-09-25T23:08:11.328Z,11.33
2017-09-25T23:10:38.017Z,10.13
2017-09-25T23:13:04.802Z,9.70
2017-09-25T23:15:31.466Z,10.57
2017-09-25T23:17:58.129Z,9.20
2017-09-25T23:20:24.821Z,9.30
2017-09-25T23:22:51.523Z,10.83
2017-09-25T23:25:18.187Z,10.07
2017-09-25T23:27:44.842Z,9.20
2017-09-25T23:30:24.258Z,8.37
2017-09-25T23:32:50.910Z,9.97
2017-09-25T23:35:17.605Z,9.20
2017-09-25T23:37:44.266Z,10.00
2017-09-25T23:40:10.913Z,9.00
2017-09-25T23:42:37.614Z,9.63
2017-09-25T23:45:04.405Z,7.63
2017-09-25T23:47:31.061Z,9.97
2017-09-25T23:49:57.750Z,9.40
2017-09-25T23:52:24.402Z,9.43
2017-09-25T23:54:51.063Z,9.30
2017-09-25T23:57:18.126Z,8.80
2017-09-25T23:59:44.812Z,9.50
